Time;durP1;ratioP1;P1;durP2;ratioP2;P2;SDS_P1;SDS_P2;PMS_P1;PMS_P2;Temp;Humidity;BMP_temperature;BMP_pressure;BME280_temperature;BME280_humidity;BME280_pressure;Samples;Min_cycle;Max_cycle;Signal;HPM_P1;HPM_P2
2022/12/05 00:00:29;;;;;;;6.80;3.78;;;;;;;;;;5024213;28;20121;-41
2022/12/05 00:02:55;;;;;;;4.03;3.28;;;;;;;;;;5024450;28;20482;-43
2022/12/05 00:05:20;;;;;;;7.80;4.18;;;;;;;;;;5025011;28;20128;-42
2022/12/05 00:07:46;;;;;;;6.57;4.90;;;;;;;;;;5026158;28;20041;-42
2022/12/05 00:10:12;;;;;;;6.30;5.70;;;;;;;;;;5023966;28;20037;-41
2022/12/05 00:12:37;;;;;;;6.72;5.65;;;;;;;;;;5027173;28;20040;-42
2022/12/05 00:15:03;;;;;;;7.57;6.00;;;;;;;;;;5023993;28;20456;-43
2022/12/05 00:17:31;;;;;;;6.72;5.47;;;;;;;;;;5024615;28;20363;-43
2022/12/05 00:19:56;;;;;;;7.68;5.47;;;;;;;;;;5022999;28;20032;-41
2022/12/05 00:22:21;;;;;;;6.75;5.55;;;;;;;;;;5024970;28;20042;-42
2022/12/05 00:24:47;;;;;;;5.72;4.32;;;;;;;;;;5025636;28;20029;-43
2022/12/05 00:27:12;;;;;;;6.25;3.72;;;;;;;;;;5025974;28;20052;-41
2022/12/05 00:29:37;;;;;;;4.00;3.53;;;;;;;;;;5026154;28;20040;-43
2022/12/05 00:32:03;;;;;;;4.35;3.75;;;;;;;;;;5025496;28;20128;-42
2022/12/05 00:34:28;;;;;;;3.05;2.75;;;;;;;;;;5024218;28;20083;-42
2022/12/05 00:36:54;;;;;;;4.30;3.00;;;;;;;;;;5026738;28;20120;-41
2022/12/05 00:39:19;;;;;;;3.80;3.45;;;;;;;;;;5024176;28;20067;-42
2022/12/05 00:41:44;;;;;;;3.05;2.75;;;;;;;;;;5024510;28;20034;-41
2022/12/05 00:44:12;;;;;;;3.25;2.65;;;;;;;;;;5024594;28;20021;-42
2022/12/05 00:46:38;;;;;;;5.43;3.85;;;;;;;;;;5027287;28;20033;-45
2022/12/05 00:49:05;;;;;;;6.28;2.75;;;;;;;;;;5023762;28;20045;-41
2022/12/05 00:51:36;;;;;;;6.57;3.15;;;;;;;;;;5025581;28;20073;-42
2022/12/05 00:54:05;;;;;;;6.05;2.70;;;;;;;;;;5023722;28;21573;-41
2022/12/05 00:56:31;;;;;;;2.67;2.47;;;;;;;;;;5023839;28;20077;-41
2022/12/05 00:58:57;;;;;;;2.50;2.30;;;;;;;;;;5026664;28;20085;-42
2022/12/05 01:01:27;;;;;;;4.07;2.28;;;;;;;;;;5025338;28;20049;-41
2022/12/05 01:03:55;;;;;;;2.50;2.30;;;;;;;;;;5021644;28;20042;-41
2022/12/05 01:06:21;;;;;;;2.20;1.95;;;;;;;;;;5022655;28;20061;-42
2022/12/05 01:08:47;;;;;;;5.13;2.50;;;;;;;;;;5024152;28;20116;-43
2022/12/05 01:11:15;;;;;;;2.40;2.20;;;;;;;;;;5022257;28;20166;-41
2022/12/05 01:13:40;;;;;;;2.42;2.22;;;;;;;;;;5024716;28;20037;-41
2022/12/05 01:16:11;;;;;;;2.45;2.25;;;;;;;;;;5025369;28;20056;-47
2022/12/05 01:18:37;;;;;;;2.22;2.10;;;;;;;;;;5023411;28;20593;-43
2022/12/05 01:21:04;;;;;;;2.22;2.03;;;;;;;;;;5022530;28;20044;-47
2022/12/05 01:23:30;;;;;;;3.25;1.73;;;;;;;;;;5021595;28;20104;-42
2022/12/05 01:25:55;;;;;;;2.15;1.95;;;;;;;;;;5024446;28;20125;-41
2022/12/05 01:28:21;;;;;;;2.42;2.22;;;;;;;;;;5024013;28;20037;-43
2022/12/05 01:30:48;;;;;;;3.67;2.05;;;;;;;;;;5025233;28;20049;-43
2022/12/05 01:33:14;;;;;;;2.00;1.90;;;;;;;;;;5024584;28;20037;-41
2022/12/05 01:35:40;;;;;;;2.88;1.90;;;;;;;;;;5024212;28;20048;-43
2022/12/05 01:38:07;;;;;;;2.47;2.30;;;;;;;;;;5024715;28;20033;-41
2022/12/05 01:40:34;;;;;;;2.75;1.98;;;;;;;;;;5025192;28;20046;-42
2022/12/05 01:43:00;;;;;;;2.33;2.13;;;;;;;;;;5023543;28;20073;-42
2022/12/05 01:45:36;;;;;;;3.83;1.77;;;;;;;;;;5025403;28;20046;-42
2022/12/05 01:48:06;;;;;;;3.95;1.83;;;;;;;;;;5025610;28;20050;-42
2022/12/05 01:50:33;;;;;;;2.05;1.95;;;;;;;;;;5025249;28;20502;-42
2022/12/05 01:52:58;;;;;;;2.47;2.00;;;;;;;;;;5025107;28;20056;-42
2022/12/05 01:55:24;;;;;;;2.22;1.80;;;;;;;;;;5026805;28;20072;-41
2022/12/05 01:57:49;;;;;;;2.00;1.90;;;;;;;;;;5026881;28;20117;-41
2022/12/05 02:00:17;;;;;;;2.20;1.80;;;;;;;;;;5027016;28;20470;-42
2022/12/05 02:02:49;;;;;;;2.65;2.25;;;;;;;;;;5027659;28;20033;-43
2022/12/05 02:05:22;;;;;;;2.33;2.13;;;;;;;;;;5028355;28;20425;-42
2022/12/05 02:07:48;;;;;;;1.67;1.58;;;;;;;;;;5026893;28;20029;-41
2022/12/05 02:10:13;;;;;;;2.13;2.00;;;;;;;;;;5027979;28;20385;-42
2022/12/05 02:12:40;;;;;;;1.80;1.63;;;;;;;;;;5026853;28;20087;-42
2022/12/05 02:15:41;;;;;;;2.20;2.00;;;;;;;;;;5024564;28;20072;-41
2022/12/05 02:18:12;;;;;;;1.70;1.60;;;;;;;;;;5015151;28;20053;-43
2022/12/05 02:20:54;;;;;;;1.73;1.60;;;;;;;;;;5027451;28;20121;-41
2022/12/05 02:23:56;;;;;;;2.50;2.10;;;;;;;;;;5022935;28;20041;-41
2022/12/05 02:26:56;;;;;;;2.92;2.60;;;;;;;;;;5024802;28;20055;-44
2022/12/05 02:29:36;;;;;;;5.05;1.92;;;;;;;;;;5023301;28;20121;-42
2022/12/05 02:32:08;;;;;;;1.65;1.55;;;;;;;;;;5026379;28;20436;-42
2022/12/05 02:34:57;;;;;;;1.80;1.70;;;;;;;;;;5026069;28;20397;-41
2022/12/05 02:37:43;;;;;;;1.80;1.63;;;;;;;;;;5027497;28;20158;-42
2022/12/05 02:40:16;;;;;;;2.03;1.67;;;;;;;;;;5021546;28;20041;-41
2022/12/05 02:42:59;;;;;;;2.15;2.05;;;;;;;;;;5026008;28;20029;-42
2022/12/05 02:45:27;;;;;;;2.25;2.05;;;;;;;;;;5024213;28;20128;-42
2022/12/05 02:47:53;;;;;;;3.15;1.80;;;;;;;;;;5026561;28;20052;-41
2022/12/05 02:50:27;;;;;;;1.70;1.60;;;;;;;;;;5025501;28;20108;-41
2022/12/05 02:52:57;;;;;;;1.83;1.73;;;;;;;;;;5023688;28;20029;-41
2022/12/05 02:55:25;;;;;;;5.35;2.10;;;;;;;;;;5021827;28;20042;-41
2022/12/05 02:57:56;;;;;;;2.35;2.00;;;;;;;;;;5026957;28;20072;-43
2022/12/05 03:00:22;;;;;;;5.00;1.87;;;;;;;;;;5025916;28;20045;-41
2022/12/05 03:02:49;;;;;;;3.20;2.30;;;;;;;;;;5022053;28;20371;-41
2022/12/05 03:05:38;;;;;;;6.65;3.13;;;;;;;;;;5024331;28;20079;-41
2022/12/05 03:08:07;;;;;;;4.28;3.75;;;;;;;;;;5024027;28;20049;-41
2022/12/05 03:10:35;;;;;;;11.65;7.68;;;;;;;;;;5025034;28;20053;-42
2022/12/05 03:13:08;;;;;;;16.70;11.20;;;;;;;;;;5025007;28;20021;-41
2022/12/05 03:15:42;;;;;;;7.13;6.32;;;;;;;;;;5020260;28;20409;-42
2022/12/05 03:18:14;;;;;;;2.50;2.30;;;;;;;;;;5025149;28;20041;-41
2022/12/05 03:20:48;;;;;;;8.70;7.18;;;;;;;;;;5026950;28;20038;-42
2022/12/05 03:23:25;;;;;;;12.05;8.48;;;;;;;;;;5023702;28;20052;-41
2022/12/05 03:25:56;;;;;;;6.20;4.03;;;;;;;;;;5022841;28;20468;-41
2022/12/05 03:28:35;;;;;;;9.65;7.40;;;;;;;;;;5024998;28;20034;-41
2022/12/05 03:31:07;;;;;;;10.65;7.55;;;;;;;;;;5024414;28;20038;-42
2022/12/05 03:33:40;;;;;;;11.43;8.70;;;;;;;;;;5027388;28;20037;-41
2022/12/05 03:36:16;;;;;;;6.13;3.72;;;;;;;;;;5022802;28;20030;-42
2022/12/05 03:39:05;;;;;;;14.45;10.80;;;;;;;;;;5026047;28;20037;-41
2022/12/05 03:41:42;;;;;;;23.33;14.32;;;;;;;;;;5016292;28;20032;-42
2022/12/05 03:44:16;;;;;;;20.67;11.98;;;;;;;;;;5020696;28;20470;-42
2022/12/05 03:46:52;;;;;;;16.35;11.52;;;;;;;;;;5025773;28;20605;-41
2022/12/05 03:49:36;;;;;;;12.25;9.73;;;;;;;;;;5024323;28;20064;-42
2022/12/05 03:52:17;;;;;;;12.68;9.60;;;;;;;;;;5025342;28;20121;-41
2022/12/05 03:54:50;;;;;;;12.32;9.52;;;;;;;;;;5025094;28;20406;-41
2022/12/05 03:57:22;;;;;;;11.65;8.23;;;;;;;;;;5024154;28;20072;-42
2022/12/05 03:59:59;;;;;;;3.30;3.00;;;;;;;;;;5024968;28;20034;-41
2022/12/05 04:02:48;;;;;;;1.65;1.55;;;;;;;;;;5023943;28;20041;-41
2022/12/05 04:05:23;;;;;;;2.58;1.50;;;;;;;;;;5025283;28;20115;-44
2022/12/05 04:07:55;;;;;;;2.95;1.33;;;;;;;;;;5025487;28;20034;-41
2022/12/05 04:10:31;;;;;;;1.70;1.60;;;;;;;;;;5024700;28;20054;-42
2022/12/05 04:13:16;;;;;;;5.85;1.30;;;;;;;;;;5026251;28;20033;-41
2022/12/05 04:18:31;;;;;;;2.13;1.00;;;;;;;;;;5025103;28;20110;-42
2022/12/05 04:23:41;;;;;;;1.45;1.30;;;;;;;;;;5022090;28;20053;-43
2022/12/05 04:26:23;;;;;;;2.80;1.50;;;;;;;;;;5025809;28;20042;-41
2022/12/05 04:29:01;;;;;;;1.92;1.80;;;;;;;;;;5025395;28;20071;-41
2022/12/05 04:31:33;;;;;;;1.50;1.40;;;;;;;;;;5023671;28;20559;-41
2022/12/05 04:34:09;;;;;;;1.52;1.42;;;;;;;;;;5022102;28;20025;-41
2022/12/05 04:36:45;;;;;;;1.65;1.55;;;;;;;;;;5023002;28;20049;-42
2022/12/05 04:39:17;;;;;;;1.60;1.50;;;;;;;;;;5023895;28;20036;-41
2022/12/05 04:41:48;;;;;;;1.60;1.50;;;;;;;;;;5025199;28;20426;-41
2022/12/05 04:44:18;;;;;;;1.60;1.50;;;;;;;;;;5026345;28;20034;-41
2022/12/05 04:46:46;;;;;;;1.40;1.30;;;;;;;;;;5022647;28;20029;-42
2022/12/05 04:49:19;;;;;;;3.72;1.67;;;;;;;;;;5024557;28;20037;-45
2022/12/05 04:51:48;;;;;;;1.83;1.40;;;;;;;;;;5024416;28;20045;-41
2022/12/05 04:54:22;;;;;;;1.45;1.35;;;;;;;;;;5023161;28;20040;-42
2022/12/05 04:56:51;;;;;;;2.05;1.95;;;;;;;;;;5009181;28;20046;-43
2022/12/05 04:59:17;;;;;;;1.52;1.42;;;;;;;;;;5006596;28;20033;-41
2022/12/05 05:01:48;;;;;;;1.30;1.20;;;;;;;;;;5019629;28;20103;-41
2022/12/05 05:04:26;;;;;;;7.65;1.45;;;;;;;;;;5023466;28;20053;-41
2022/12/05 05:06:52;;;;;;;1.20;1.20;;;;;;;;;;5020982;28;20561;-41
2022/12/05 05:09:17;;;;;;;2.35;1.80;;;;;;;;;;5024381;28;20033;-43
2022/12/05 05:11:42;;;;;;;1.27;1.17;;;;;;;;;;5010921;28;20128;-41
2022/12/05 05:14:08;;;;;;;2.25;1.45;;;;;;;;;;5006068;28;20053;-41
2022/12/05 05:16:37;;;;;;;2.85;2.55;;;;;;;;;;5003853;28;20045;-42
2022/12/05 05:19:03;;;;;;;4.97;3.78;;;;;;;;;;5004206;28;20038;-43
2022/12/05 05:21:31;;;;;;;4.07;3.58;;;;;;;;;;5012044;28;20044;-44
2022/12/05 05:23:57;;;;;;;3.50;2.90;;;;;;;;;;5021613;28;20069;-41
2022/12/05 05:26:24;;;;;;;6.40;4.97;;;;;;;;;;5021335;28;20073;-41
2022/12/05 05:28:50;;;;;;;5.25;3.85;;;;;;;;;;5025969;28;20049;-41
2022/12/05 05:31:16;;;;;;;5.75;3.90;;;;;;;;;;5027076;28;20038;-41
2022/12/05 05:33:41;;;;;;;11.18;3.65;;;;;;;;;;5024337;28;20067;-41
2022/12/05 05:36:10;;;;;;;5.13;3.40;;;;;;;;;;5018244;28;20462;-42
2022/12/05 05:38:46;;;;;;;5.47;3.60;;;;;;;;;;5005000;28;20026;-41
2022/12/05 05:41:14;;;;;;;3.83;3.03;;;;;;;;;;5008400;28;20422;-41
2022/12/05 05:43:40;;;;;;;3.47;3.10;;;;;;;;;;5016883;28;20116;-41
2022/12/05 05:46:05;;;;;;;6.00;3.97;;;;;;;;;;5022336;28;20129;-41
2022/12/05 05:48:31;;;;;;;6.93;4.65;;;;;;;;;;5028603;28;20517;-41
2022/12/05 05:50:59;;;;;;;9.65;6.57;;;;;;;;;;5027089;28;20056;-41
2022/12/05 05:53:25;;;;;;;12.25;7.75;;;;;;;;;;5025769;28;20030;-43
2022/12/05 05:55:50;;;;;;;9.25;6.07;;;;;;;;;;5027430;28;20051;-41
2022/12/05 05:58:16;;;;;;;3.90;3.50;;;;;;;;;;5025143;28;20478;-41
2022/12/05 06:00:41;;;;;;;8.38;3.70;;;;;;;;;;5027243;28;20486;-41
2022/12/05 06:03:08;;;;;;;3.55;3.25;;;;;;;;;;5023794;28;20029;-43
2022/12/05 06:05:33;;;;;;;3.65;3.35;;;;;;;;;;5023237;28;20049;-41
2022/12/05 06:07:58;;;;;;;3.42;3.10;;;;;;;;;;5027241;28;20469;-40
2022/12/05 06:10:24;;;;;;;4.10;3.70;;;;;;;;;;5028436;28;20045;-41
2022/12/05 06:12:49;;;;;;;4.90;3.30;;;;;;;;;;5026724;28;20033;-43
2022/12/05 06:15:14;;;;;;;4.10;2.25;;;;;;;;;;5023678;28;20034;-42
2022/12/05 06:17:40;;;;;;;3.45;2.53;;;;;;;;;;5028538;28;20108;-41
2022/12/05 06:20:07;;;;;;;3.58;2.40;;;;;;;;;;5020997;28;20136;-44
2022/12/05 06:22:33;;;;;;;2.33;2.00;;;;;;;;;;5025036;28;20432;-45
2022/12/05 06:24:58;;;;;;;6.78;2.40;;;;;;;;;;5019214;28;20021;-43
2022/12/05 06:27:24;;;;;;;2.97;2.17;;;;;;;;;;5021723;28;20053;-41
2022/12/05 06:29:49;;;;;;;3.67;2.50;;;;;;;;;;5026234;28;20120;-41
2022/12/05 06:32:15;;;;;;;3.03;2.42;;;;;;;;;;5026289;28;20042;-43
2022/12/05 06:34:40;;;;;;;2.08;1.92;;;;;;;;;;5022964;28;20168;-45
2022/12/05 06:37:06;;;;;;;2.05;1.90;;;;;;;;;;5004466;28;20042;-41
2022/12/05 06:39:31;;;;;;;2.65;2.25;;;;;;;;;;5000276;28;20044;-41
2022/12/05 06:41:56;;;;;;;2.00;1.90;;;;;;;;;;5022180;28;20073;-41
2022/12/05 06:44:25;;;;;;;3.22;2.72;;;;;;;;;;5025211;28;20067;-41
2022/12/05 06:46:51;;;;;;;4.03;3.60;;;;;;;;;;5023123;28;20049;-43
2022/12/05 06:49:16;;;;;;;4.15;3.70;;;;;;;;;;5024148;28;20394;-41
2022/12/05 06:51:42;;;;;;;3.45;3.15;;;;;;;;;;5024712;28;20136;-41
2022/12/05 06:54:07;;;;;;;7.82;4.90;;;;;;;;;;5026084;28;20037;-44
2022/12/05 06:56:32;;;;;;;12.75;9.10;;;;;;;;;;5022641;28;20049;-42
2022/12/05 06:58:58;;;;;;;15.43;11.27;;;;;;;;;;5024160;28;20091;-41
2022/12/05 07:01:42;;;;;;;8.55;6.60;;;;;;;;;;5010327;28;20053;-41
2022/12/05 07:04:15;;;;;;;35.53;18.63;;;;;;;;;;5001165;28;20046;-42
2022/12/05 07:06:43;;;;;;;68.03;32.85;;;;;;;;;;5012579;28;20045;-41
2022/12/05 07:09:09;;;;;;;21.45;11.88;;;;;;;;;;5011727;28;20563;-42
2022/12/05 07:11:34;;;;;;;14.82;11.10;;;;;;;;;;5009977;28;20037;-41
2022/12/05 07:14:00;;;;;;;34.80;20.85;;;;;;;;;;5011628;28;20514;-41
2022/12/05 07:16:25;;;;;;;30.05;19.23;;;;;;;;;;5012814;28;20045;-43
2022/12/05 07:18:51;;;;;;;12.68;9.63;;;;;;;;;;5004616;28;20123;-41
2022/12/05 07:21:17;;;;;;;14.65;9.32;;;;;;;;;;5013480;28;20041;-41
2022/12/05 07:23:44;;;;;;;18.35;12.13;;;;;;;;;;5026549;28;20064;-44
2022/12/05 07:26:13;;;;;;;11.98;7.28;;;;;;;;;;5025221;28;20116;-40
2022/12/05 07:28:38;;;;;;;9.05;4.25;;;;;;;;;;5022724;28;20041;-41
2022/12/05 07:31:09;;;;;;;3.42;3.13;;;;;;;;;;5021692;28;20056;-41
2022/12/05 07:33:35;;;;;;;4.88;2.58;;;;;;;;;;5017556;28;20500;-41
2022/12/05 07:36:04;;;;;;;3.78;2.22;;;;;;;;;;5019956;28;20046;-41
2022/12/05 07:38:29;;;;;;;4.00;2.22;;;;;;;;;;5022304;28;20155;-41
2022/12/05 07:40:55;;;;;;;2.00;1.90;;;;;;;;;;5011098;28;20038;-41
2022/12/05 07:43:21;;;;;;;5.90;4.43;;;;;;;;;;4999582;28;22632;-42
2022/12/05 07:45:46;;;;;;;4.63;3.78;;;;;;;;;;5005786;28;20050;-41
2022/12/05 07:48:11;;;;;;;3.38;2.95;;;;;;;;;;5009125;28;20462;-42
2022/12/05 07:50:37;;;;;;;2.58;2.30;;;;;;;;;;5015389;28;20036;-43
2022/12/05 07:53:03;;;;;;;2.25;2.10;;;;;;;;;;5015355;28;20113;-43
2022/12/05 07:55:28;;;;;;;2.47;2.28;;;;;;;;;;5013073;28;20042;-41
2022/12/05 07:57:54;;;;;;;2.50;2.30;;;;;;;;;;5009738;28;20046;-40
2022/12/05 08:00:20;;;;;;;2.60;2.40;;;;;;;;;;5017636;28;20119;-41
2022/12/05 08:02:46;;;;;;;2.97;2.75;;;;;;;;;;5012263;28;20116;-41
2022/12/05 08:05:11;;;;;;;3.20;2.50;;;;;;;;;;5012675;28;20486;-42
2022/12/05 08:07:37;;;;;;;2.70;2.50;;;;;;;;;;5023276;28;20124;-41
2022/12/05 08:10:03;;;;;;;2.45;2.25;;;;;;;;;;5025419;28;20025;-41
2022/12/05 08:12:28;;;;;;;2.22;2.03;;;;;;;;;;5027045;28;20065;-41
2022/12/05 08:14:54;;;;;;;5.15;2.70;;;;;;;;;;5025256;28;20099;-42
2022/12/05 08:17:19;;;;;;;2.80;2.60;;;;;;;;;;5016393;28;20095;-41
2022/12/05 08:19:44;;;;;;;2.15;1.95;;;;;;;;;;5025199;28;20033;-43
2022/12/05 08:22:10;;;;;;;2.10;1.88;;;;;;;;;;5022384;28;20037;-42
2022/12/05 08:24:35;;;;;;;2.50;2.30;;;;;;;;;;5027387;28;20433;-41
2022/12/05 08:27:00;;;;;;;2.53;2.20;;;;;;;;;;5023387;28;20060;-42
2022/12/05 08:29:26;;;;;;;2.40;2.20;;;;;;;;;;5026232;28;20457;-41
2022/12/05 08:31:51;;;;;;;2.95;2.03;;;;;;;;;;5027054;28;20045;-41
2022/12/05 08:34:18;;;;;;;2.05;1.92;;;;;;;;;;5024903;28;20064;-41
2022/12/05 08:36:44;;;;;;;2.15;2.05;;;;;;;;;;5026274;28;20045;-42
2022/12/05 08:39:14;;;;;;;3.25;1.90;;;;;;;;;;5022093;28;20048;-41
2022/12/05 08:41:40;;;;;;;1.80;1.70;;;;;;;;;;5024650;28;20061;-41
2022/12/05 08:44:07;;;;;;;2.35;2.15;;;;;;;;;;5025160;28;20061;-41
2022/12/05 08:46:34;;;;;;;2.95;2.15;;;;;;;;;;5023495;28;20072;-41
2022/12/05 08:49:00;;;;;;;2.15;1.77;;;;;;;;;;5023340;28;20461;-41
2022/12/05 08:51:25;;;;;;;2.10;2.00;;;;;;;;;;5020767;28;20051;-41
2022/12/05 08:53:50;;;;;;;3.40;2.20;;;;;;;;;;5025565;28;20041;-43
2022/12/05 08:56:16;;;;;;;1.77;1.65;;;;;;;;;;5022080;28;20485;-41
2022/12/05 08:58:42;;;;;;;2.50;2.30;;;;;;;;;;5024241;28;20083;-42
2022/12/05 09:01:13;;;;;;;9.50;3.65;;;;;;;;;;5019021;28;20033;-42
2022/12/05 09:03:39;;;;;;;5.53;2.88;;;;;;;;;;5024378;28;20067;-42
2022/12/05 09:06:26;;;;;;;3.63;2.45;;;;;;;;;;5022817;28;20163;-41
2022/12/05 09:08:57;;;;;;;11.35;3.78;;;;;;;;;;5025735;28;20053;-41
2022/12/05 09:11:26;;;;;;;3.83;2.43;;;;;;;;;;5022647;28;21376;-44
2022/12/05 09:13:54;;;;;;;3.42;2.83;;;;;;;;;;5025502;28;20429;-41
2022/12/05 09:16:25;;;;;;;4.22;3.17;;;;;;;;;;5013644;28;20478;-41
2022/12/05 09:18:51;;;;;;;4.07;2.72;;;;;;;;;;5005217;28;20030;-41
2022/12/05 09:21:22;;;;;;;3.00;2.72;;;;;;;;;;5009963;28;20037;-42
2022/12/05 09:23:48;;;;;;;3.90;2.60;;;;;;;;;;5024797;28;20049;-41
2022/12/05 09:26:16;;;;;;;2.90;2.58;;;;;;;;;;5021604;28;20033;-43
2022/12/05 09:28:43;;;;;;;2.95;2.10;;;;;;;;;;5022872;28;20037;-42
2022/12/05 09:31:11;;;;;;;4.18;2.88;;;;;;;;;;5022012;28;20490;-41
2022/12/05 09:33:37;;;;;;;2.25;2.05;;;;;;;;;;5021568;28;20033;-41
2022/12/05 09:36:12;;;;;;;2.70;2.38;;;;;;;;;;5018705;28;20041;-42
2022/12/05 09:38:37;;;;;;;2.33;2.13;;;;;;;;;;5025730;28;20021;-41
2022/12/05 09:41:08;;;;;;;2.25;2.10;;;;;;;;;;5023805;28;20038;-42
2022/12/05 09:43:56;;;;;;;2.50;2.30;;;;;;;;;;5023764;28;20113;-41
2022/12/05 09:46:45;;;;;;;3.45;2.53;;;;;;;;;;5021618;28;20586;-42
2022/12/05 09:49:11;;;;;;;3.25;2.50;;;;;;;;;;5023217;28;20389;-42
2022/12/05 09:51:42;;;;;;;5.88;2.63;;;;;;;;;;5022376;28;20041;-41
2022/12/05 09:54:09;;;;;;;2.60;2.40;;;;;;;;;;5015761;28;20021;-40
2022/12/05 09:56:35;;;;;;;2.58;1.95;;;;;;;;;;5014563;28;20737;-40
2022/12/05 09:59:01;;;;;;;3.92;3.03;;;;;;;;;;5019359;28;20156;-44
2022/12/05 10:02:06;;;;;;;3.60;3.00;;;;;;;;;;5018796;28;20041;-42
2022/12/05 10:04:33;;;;;;;8.95;3.97;;;;;;;;;;4977434;28;20547;-41
2022/12/05 10:07:20;;;;;;;4.65;2.70;;;;;;;;;;4977015;28;20074;-42
2022/12/05 10:09:55;;;;;;;5.10;2.63;;;;;;;;;;4977426;28;20470;-41
2022/12/05 10:12:39;;;;;;;4.50;2.30;;;;;;;;;;4979145;28;20042;-42
2022/12/05 10:15:21;;;;;;;3.10;2.78;;;;;;;;;;4980919;28;20054;-41
2022/12/05 10:18:00;;;;;;;3.40;2.90;;;;;;;;;;4981948;28;20065;-41
2022/12/05 10:20:37;;;;;;;2.45;2.22;;;;;;;;;;4982334;28;20529;-41
2022/12/05 10:23:11;;;;;;;3.72;2.80;;;;;;;;;;4981772;28;20062;-41
2022/12/05 10:25:38;;;;;;;5.35;3.42;;;;;;;;;;4981320;28;20046;-40
2022/12/05 10:28:13;;;;;;;2.78;2.42;;;;;;;;;;4979866;28;20102;-42
2022/12/05 10:30:40;;;;;;;3.40;2.90;;;;;;;;;;4980815;28;20476;-42
2022/12/05 10:33:16;;;;;;;2.50;2.30;;;;;;;;;;4985283;28;20039;-44
2022/12/05 10:35:42;;;;;;;3.42;2.38;;;;;;;;;;4981266;28;20128;-41
2022/12/05 10:38:29;;;;;;;3.15;2.88;;;;;;;;;;4984598;28;20030;-41
2022/12/05 10:40:59;;;;;;;2.63;2.40;;;;;;;;;;5015987;28;20501;-41
2022/12/05 10:43:26;;;;;;;7.43;5.45;;;;;;;;;;5019857;28;20029;-40
2022/12/05 10:45:52;;;;;;;9.32;4.88;;;;;;;;;;5015383;28;20165;-41
2022/12/05 10:48:20;;;;;;;3.45;3.15;;;;;;;;;;5000899;28;20074;-41
2022/12/05 10:50:51;;;;;;;1.85;1.75;;;;;;;;;;5007992;28;20129;-41
2022/12/05 10:53:41;;;;;;;6.32;4.13;;;;;;;;;;5024465;28;20047;-42
2022/12/05 10:56:34;;;;;;;7.28;5.93;;;;;;;;;;5023150;28;20485;-42
2022/12/05 10:58:59;;;;;;;10.52;7.20;;;;;;;;;;5022976;28;20421;-41
2022/12/05 11:01:25;;;;;;;15.55;9.77;;;;;;;;;;5018444;28;20037;-41
2022/12/05 11:03:56;;;;;;;17.75;11.73;;;;;;;;;;5023862;28;20153;-43
2022/12/05 11:06:30;;;;;;;39.33;21.17;;;;;;;;;;5010773;28;20145;-45
2022/12/05 11:09:18;;;;;;;21.65;12.48;;;;;;;;;;5001227;28;20028;-41
2022/12/05 11:11:59;;;;;;;23.15;10.82;;;;;;;;;;5012275;28;20049;-42
2022/12/05 11:14:26;;;;;;;18.13;11.02;;;;;;;;;;5021746;28;20075;-42
2022/12/05 11:16:57;;;;;;;17.33;9.65;;;;;;;;;;5003696;28;20050;-40
2022/12/05 11:19:30;;;;;;;18.25;9.98;;;;;;;;;;4994889;28;20044;-40
2022/12/05 11:21:56;;;;;;;15.45;9.63;;;;;;;;;;4994345;28;20797;-46
2022/12/05 11:24:28;;;;;;;22.38;10.73;;;;;;;;;;5006031;28;20030;-40
2022/12/05 11:26:55;;;;;;;18.42;11.02;;;;;;;;;;4999491;28;20483;-40
2022/12/05 11:29:55;;;;;;;12.23;9.90;;;;;;;;;;5007087;28;20038;-45
2022/12/05 11:32:24;;;;;;;9.38;6.70;;;;;;;;;;5022655;28;20041;-43
2022/12/05 11:34:52;;;;;;;6.82;5.25;;;;;;;;;;5022650;28;20545;-43
2022/12/05 11:37:28;;;;;;;9.45;7.53;;;;;;;;;;5006495;28;20046;-42
2022/12/05 11:39:54;;;;;;;12.35;6.53;;;;;;;;;;5005572;28;20893;-45
2022/12/05 11:42:44;;;;;;;9.60;4.95;;;;;;;;;;5025754;28;20045;-41
2022/12/05 11:45:18;;;;;;;4.80;4.00;;;;;;;;;;5022359;28;21278;-41
2022/12/05 11:48:07;;;;;;;5.78;3.75;;;;;;;;;;5006338;28;20044;-42
2022/12/05 11:50:47;;;;;;;6.95;4.82;;;;;;;;;;5002651;28;20103;-40
2022/12/05 11:53:26;;;;;;;3.17;2.88;;;;;;;;;;5024453;28;20022;-46
2022/12/05 11:56:28;;;;;;;7.18;4.00;;;;;;;;;;5016792;28;20057;-41
2022/12/05 11:59:17;;;;;;;5.57;4.57;;;;;;;;;;5000881;28;20398;-41
2022/12/05 12:02:03;;;;;;;7.53;5.03;;;;;;;;;;4999576;28;20041;-40
2022/12/05 12:04:34;;;;;;;19.88;9.40;;;;;;;;;;5004141;28;20069;-42
2022/12/05 12:07:48;;;;;;;14.35;10.82;;;;;;;;;;5005657;28;20125;-41
2022/12/05 12:10:46;;;;;;;41.90;21.42;;;;;;;;;;4999997;28;20024;-43
2022/12/05 12:13:46;;;;;;;49.15;23.52;;;;;;;;;;5005039;28;20029;-40
2022/12/05 12:16:36;;;;;;;34.58;18.63;;;;;;;;;;5003748;28;20417;-42
2022/12/05 12:19:14;;;;;;;31.35;15.20;;;;;;;;;;5004798;28;20036;-40
2022/12/05 12:22:30;;;;;;;30.80;15.63;;;;;;;;;;5017773;28;20045;-43
2022/12/05 12:25:17;;;;;;;26.58;16.83;;;;;;;;;;4959843;28;20130;-40
2022/12/05 12:27:48;;;;;;;34.25;17.95;;;;;;;;;;4962180;28;20500;-42
2022/12/05 12:30:20;;;;;;;29.60;19.73;;;;;;;;;;4963329;28;20035;-43
2022/12/05 12:33:12;;;;;;;20.40;13.73;;;;;;;;;;4962995;28;20050;-42
2022/12/05 12:35:48;;;;;;;24.70;13.57;;;;;;;;;;4955734;28;20043;-40
2022/12/05 12:38:29;;;;;;;23.60;16.20;;;;;;;;;;4965097;28;20097;-41
2022/12/05 12:41:16;;;;;;;26.40;15.20;;;;;;;;;;4959478;28;20047;-40
2022/12/05 12:43:47;;;;;;;23.63;11.68;;;;;;;;;;4962917;28;20117;-43
2022/12/05 12:46:34;;;;;;;11.10;8.65;;;;;;;;;;4959980;28;20694;-42
2022/12/05 12:49:05;;;;;;;11.98;9.57;;;;;;;;;;4962182;28;20061;-42
2022/12/05 12:51:32;;;;;;;15.75;9.18;;;;;;;;;;4956381;28;20039;-44
2022/12/05 12:54:04;;;;;;;25.30;14.25;;;;;;;;;;4964499;28;20376;-41
2022/12/05 12:57:07;;;;;;;14.35;9.00;;;;;;;;;;4963853;28;20554;-40
2022/12/05 13:00:20;;;;;;;13.60;7.68;;;;;;;;;;4974746;28;20045;-39
2022/12/05 13:03:19;;;;;;;9.10;4.32;;;;;;;;;;5025369;28;20072;-44
2022/12/05 13:06:16;;;;;;;8.77;3.67;;;;;;;;;;5022316;28;20053;-43
2022/12/05 13:08:59;;;;;;;8.48;4.40;;;;;;;;;;5019647;28;20050;-40
2022/12/05 13:11:29;;;;;;;14.10;7.57;;;;;;;;;;5016815;28;20140;-48
2022/12/05 13:13:59;;;;;;;12.57;7.07;;;;;;;;;;5021313;28;20075;-41
2022/12/05 13:16:31;;;;;;;14.57;7.60;;;;;;;;;;5008748;28;20181;-44
2022/12/05 13:18:57;;;;;;;15.10;7.72;;;;;;;;;;5003973;28;20113;-40
2022/12/05 13:21:24;;;;;;;14.43;6.53;;;;;;;;;;5013301;28;20132;-40
2022/12/05 13:23:54;;;;;;;13.75;6.70;;;;;;;;;;5024757;28;20040;-40
2022/12/05 13:26:22;;;;;;;14.35;9.07;;;;;;;;;;5011133;28;21684;-43
2022/12/05 13:28:55;;;;;;;18.15;10.63;;;;;;;;;;5001166;28;20032;-44
2022/12/05 13:31:42;;;;;;;20.23;9.43;;;;;;;;;;5014070;28;20169;-39
2022/12/05 13:34:44;;;;;;;18.60;9.80;;;;;;;;;;5023407;28;20049;-40
2022/12/05 13:43:05;;;;;;;15.02;7.50;;;;;;;;;;5005769;28;20045;-40
2022/12/05 13:45:32;;;;;;;13.05;5.85;;;;;;;;;;5003231;28;20430;-46
2022/12/05 13:48:00;;;;;;;8.50;5.53;;;;;;;;;;5003418;28;20487;-42
2022/12/05 13:50:32;;;;;;;12.73;6.25;;;;;;;;;;5007329;28;20050;-41
2022/12/05 13:53:02;;;;;;;10.98;6.22;;;;;;;;;;5006960;28;20030;-40
2022/12/05 13:55:33;;;;;;;10.85;5.70;;;;;;;;;;5011385;28;20084;-42
2022/12/05 13:58:02;;;;;;;8.50;5.28;;;;;;;;;;5024877;28;20017;-42
2022/12/05 14:00:35;;;;;;;6.97;4.55;;;;;;;;;;5026898;28;20367;-40
2022/12/05 14:03:04;;;;;;;9.60;4.93;;;;;;;;;;5024373;28;20061;-43
2022/12/05 14:05:39;;;;;;;12.90;4.88;;;;;;;;;;5028862;28;20037;-40
2022/12/05 14:08:23;;;;;;;6.18;3.95;;;;;;;;;;5027965;28;20469;-41
2022/12/05 14:10:48;;;;;;;3.65;3.28;;;;;;;;;;5026532;28;20049;-44
2022/12/05 14:13:14;;;;;;;7.35;3.70;;;;;;;;;;5027616;28;20167;-45
2022/12/05 14:15:44;;;;;;;8.13;3.70;;;;;;;;;;5024773;28;20512;-42
2022/12/05 14:18:24;;;;;;;10.40;3.70;;;;;;;;;;5029772;28;20022;-45
2022/12/05 14:21:03;;;;;;;9.63;4.32;;;;;;;;;;5022533;28;20037;-42
2022/12/05 14:23:54;;;;;;;4.03;2.80;;;;;;;;;;5027888;28;20026;-44
2022/12/05 14:26:40;;;;;;;3.03;2.10;;;;;;;;;;5024542;28;20052;-41
2022/12/05 14:29:19;;;;;;;2.60;2.40;;;;;;;;;;5027561;28;20067;-41
2022/12/05 14:32:09;;;;;;;4.80;2.00;;;;;;;;;;5024095;28;20045;-40
2022/12/05 14:34:37;;;;;;;2.80;2.33;;;;;;;;;;5022355;28;20028;-42
2022/12/05 14:37:06;;;;;;;2.60;2.40;;;;;;;;;;5025701;28;20421;-43
2022/12/05 14:39:34;;;;;;;4.88;2.60;;;;;;;;;;5025604;28;20030;-43
2022/12/05 14:42:02;;;;;;;3.50;3.20;;;;;;;;;;5028442;28;20482;-40
2022/12/05 14:44:31;;;;;;;4.95;3.47;;;;;;;;;;5026854;28;20049;-40
2022/12/05 14:47:02;;;;;;;4.05;3.33;;;;;;;;;;5022410;28;20038;-41
2022/12/05 14:49:52;;;;;;;3.30;3.00;;;;;;;;;;5027124;28;20091;-41
2022/12/05 14:52:22;;;;;;;3.17;2.88;;;;;;;;;;5026302;28;20103;-42
2022/12/05 14:54:51;;;;;;;7.68;6.97;;;;;;;;;;5023552;28;20026;-42
2022/12/05 14:57:17;;;;;;;9.32;8.40;;;;;;;;;;5025574;28;20111;-43
2022/12/05 15:00:00;;;;;;;9.90;8.55;;;;;;;;;;5027039;28;20030;-42
2022/12/05 15:02:36;;;;;;;11.35;10.13;;;;;;;;;;5022834;28;20067;-42
2022/12/05 15:05:17;;;;;;;26.02;20.08;;;;;;;;;;5024844;28;20083;-43
2022/12/05 15:07:43;;;;;;;14.48;11.77;;;;;;;;;;5020729;28;20764;-41
2022/12/05 15:10:27;;;;;;;6.00;5.40;;;;;;;;;;5021987;28;20116;-40
2022/12/05 15:13:13;;;;;;;11.48;4.88;;;;;;;;;;5027335;28;20041;-42
2022/12/05 15:15:38;;;;;;;17.77;7.90;;;;;;;;;;5021309;28;20096;-41
2022/12/05 15:18:30;;;;;;;17.02;6.40;;;;;;;;;;5021626;28;20035;-41